createdAt,value
2016-08-01T00:00:19.600Z,17.12
2016-08-01T00:01:19.625Z,17.14
2016-08-01T00:02:19.653Z,17.01
2016-08-01T00:03:19.677Z,16.98
2016-08-01T00:04:19.704Z,16.97
2016-08-01T00:05:19.735Z,16.94
2016-08-01T00:06:19.759Z,16.89
2016-08-01T00:07:19.782Z,16.93
2016-08-01T00:09:19.836Z,16.91
2016-08-01T00:11:34.807Z,16.93
2016-08-01T00:12:19.918Z,16.86
2016-08-01T00:13:19.946Z,16.83
2016-08-01T00:14:19.973Z,16.88
2016-08-01T00:15:19.998Z,16.91
2016-08-01T00:16:20.014Z,16.96
2016-08-01T00:17:20.099Z,16.93
2016-08-01T00:18:20.071Z,16.94
2016-08-01T00:19:20.095Z,16.94
2016-08-01T00:20:20.120Z,16.91
2016-08-01T00:21:20.149Z,16.91
2016-08-01T00:22:20.170Z,16.85
2016-08-01T00:23:20.201Z,16.79
2016-08-01T00:24:20.241Z,16.85
2016-08-01T00:25:20.304Z,16.79
2016-08-01T00:26:20.282Z,16.79
2016-08-01T00:27:35.229Z,16.81
2016-08-01T00:28:35.256Z,16.83
2016-08-01T00:29:20.356Z,16.86
2016-08-01T00:30:20.391Z,16.83
2016-08-01T00:31:20.411Z,16.85
2016-08-01T00:32:20.436Z,16.78
2016-08-01T00:33:20.473Z,16.88
2016-08-01T00:34:20.541Z,16.79
2016-08-01T00:35:20.519Z,16.78
2016-08-01T00:36:20.543Z,16.83
2016-08-01T00:37:20.564Z,16.76
2016-08-01T00:38:20.593Z,16.76
2016-08-01T00:39:35.547Z,16.71
2016-08-01T00:40:20.645Z,16.68
2016-08-01T00:41:20.676Z,16.73
2016-08-01T00:42:20.702Z,16.68
2016-08-01T00:43:35.662Z,16.58
2016-08-01T00:44:20.755Z,16.57
2016-08-01T00:45:20.777Z,16.53
2016-08-01T00:46:20.811Z,16.52
2016-08-01T00:47:20.830Z,16.53
2016-08-01T00:48:20.850Z,16.57
2016-08-01T00:49:20.880Z,16.5
2016-08-01T00:50:20.912Z,16.5
2016-08-01T00:51:20.937Z,16.53
2016-08-01T00:52:20.961Z,16.49
2016-08-01T00:53:20.991Z,16.46
2016-08-01T00:54:21.011Z,16.41
2016-08-01T00:55:35.966Z,16.41
2016-08-01T00:56:21.068Z,16.45
2016-08-01T00:57:21.089Z,16.42
2016-08-01T00:58:21.174Z,16.45
2016-08-01T00:59:36.068Z,16.42
2016-08-01T01:00:36.092Z,16.41
2016-08-01T01:01:21.197Z,16.56
2016-08-01T01:02:21.221Z,16.42
2016-08-01T01:03:21.242Z,16.39
2016-08-01T01:04:21.271Z,16.45
2016-08-01T01:05:21.303Z,16.41
2016-08-01T01:06:21.321Z,16.39
2016-08-01T01:07:21.353Z,16.31
2016-08-01T01:08:21.379Z,16.48
2016-08-01T01:09:21.405Z,16.41
2016-08-01T01:10:21.433Z,16.46
2016-08-01T01:11:21.454Z,16.34
2016-08-01T01:12:21.480Z,16.39
2016-08-01T01:13:21.515Z,16.27
2016-08-01T01:14:36.460Z,16.35
2016-08-01T01:15:21.560Z,16.28
2016-08-01T01:16:21.586Z,16.24
2016-08-01T01:17:21.609Z,16.28
2016-08-01T01:18:21.638Z,16.21
2016-08-01T01:19:21.669Z,16.25
2016-08-01T01:20:21.687Z,16.24
2016-08-01T01:21:21.713Z,16.15
2016-08-01T01:22:21.751Z,16.11
2016-08-01T01:23:21.760Z,16.09
2016-08-01T01:24:21.799Z,16.15
2016-08-01T01:25:21.871Z,16.2
2016-08-01T01:26:21.850Z,16.2
2016-08-01T01:27:21.871Z,16.09
2016-08-01T01:28:21.894Z,16.11
2016-08-01T01:29:21.926Z,16.12
2016-08-01T01:30:21.965Z,16.09
2016-08-01T01:31:21.977Z,16.11
2016-08-01T01:32:21.999Z,15.97
2016-08-01T01:33:22.083Z,16.04
2016-08-01T01:34:22.052Z,16.07
2016-08-01T01:35:22.076Z,15.97
2016-08-01T01:36:22.116Z,16.01
2016-08-01T01:37:22.128Z,16
2016-08-01T01:38:22.162Z,15.94
2016-08-01T01:39:22.231Z,16.04
2016-08-01T01:40:22.206Z,15.94
2016-08-01T01:41:22.233Z,15.93
2016-08-01T01:42:22.258Z,15.96
2016-08-01T01:43:22.292Z,16
2016-08-01T01:44:22.316Z,15.94
2016-08-01T01:45:22.343Z,15.93
2016-08-01T01:46:37.288Z,15.87
2016-08-01T01:47:22.391Z,15.83
2016-08-01T01:48:22.415Z,15.94
2016-08-01T01:49:22.437Z,15.93
2016-08-01T01:50:22.468Z,16
2016-08-01T01:51:22.497Z,15.92
2016-08-01T01:52:22.516Z,15.96
2016-08-01T01:53:22.541Z,15.86
2016-08-01T01:54:22.572Z,15.93
2016-08-01T01:55:22.597Z,15.83
2016-08-01T01:56:22.617Z,15.84
2016-08-01T01:57:22.651Z,15.86
2016-08-01T01:59:37.625Z,15.78
2016-08-01T02:00:37.651Z,15.82
2016-08-01T02:01:22.753Z,15.78
2016-08-01T02:02:37.698Z,15.68
2016-08-01T02:03:22.806Z,15.83
2016-08-01T02:04:22.832Z,15.69
2016-08-01T02:05:22.852Z,15.69
2016-08-01T02:06:22.883Z,15.69
2016-08-01T02:07:22.911Z,15.69
2016-08-01T02:08:22.929Z,15.71
2016-08-01T02:09:22.962Z,15.69
2016-08-01T02:10:22.984Z,15.71
2016-08-01T02:11:23.007Z,15.78
2016-08-01T02:12:23.036Z,15.8
2016-08-01T02:13:23.061Z,15.71
2016-08-01T02:14:23.088Z,15.72
2016-08-01T02:15:23.116Z,15.67
2016-08-01T02:16:23.140Z,15.69
2016-08-01T02:17:23.166Z,15.69
2016-08-01T02:18:38.114Z,15.68
2016-08-01T02:19:23.224Z,15.65
2016-08-01T02:20:23.247Z,15.6
2016-08-01T02:21:23.275Z,15.74
2016-08-01T02:22:23.290Z,15.64
2016-08-01T02:23:23.314Z,15.6
2016-08-01T02:24:23.337Z,15.56
2016-08-01T02:25:23.370Z,15.57
2016-08-01T02:26:23.394Z,15.54
2016-08-01T02:27:23.416Z,15.6
2016-08-01T02:28:23.444Z,15.56
2016-08-01T02:29:23.469Z,15.57
2016-08-01T02:30:23.499Z,15.59
2016-08-01T02:32:23.548Z,15.54
2016-08-01T02:33:23.570Z,15.57
2016-08-01T02:34:38.522Z,15.68
2016-08-01T02:35:23.625Z,15.59
2016-08-01T02:36:23.650Z,15.56
2016-08-01T02:37:23.675Z,15.57
2016-08-01T02:38:23.698Z,15.57
2016-08-01T02:39:23.725Z,15.57
2016-08-01T02:40:23.750Z,15.59
2016-08-01T02:41:23.831Z,15.56
2016-08-01T02:42:23.804Z,15.53
2016-08-01T02:43:23.833Z,15.57
2016-08-01T02:45:23.895Z,15.51
2016-08-01T02:46:38.833Z,15.56
2016-08-01T02:47:23.928Z,15.51
2016-08-01T02:48:23.966Z,15.53
2016-08-01T02:49:38.914Z,15.53
2016-08-01T02:50:24.008Z,15.57
2016-08-01T02:51:24.034Z,15.57
2016-08-01T02:52:24.061Z,15.6
2016-08-01T02:53:24.094Z,15.57
2016-08-01T02:54:24.129Z,15.67
2016-08-01T02:55:24.134Z,15.71
2016-08-01T02:56:24.162Z,15.67
2016-08-01T02:57:24.194Z,15.74
2016-08-01T02:58:24.216Z,15.69
2016-08-01T02:59:24.244Z,15.71
2016-08-01T03:00:24.268Z,15.67
2016-08-01T03:02:24.316Z,15.71
2016-08-01T03:03:24.346Z,15.65
2016-08-01T03:04:24.376Z,15.67
2016-08-01T03:05:24.400Z,15.68
2016-08-01T03:06:24.417Z,15.74
2016-08-01T03:07:24.449Z,15.71
2016-08-01T03:08:24.476Z,15.72
2016-08-01T03:09:24.502Z,15.69
2016-08-01T03:10:24.531Z,15.67
2016-08-01T03:11:24.601Z,15.75
2016-08-01T03:12:24.576Z,15.72
2016-08-01T03:13:24.604Z,15.72
2016-08-01T03:14:24.623Z,15.64
2016-08-01T03:15:24.662Z,15.74
2016-08-01T03:16:24.678Z,15.69
2016-08-01T03:18:24.732Z,15.68
2016-08-01T03:20:24.782Z,15.6
2016-08-01T03:21:39.726Z,15.57
2016-08-01T03:22:24.834Z,15.6
2016-08-01T03:23:24.849Z,15.54
2016-08-01T03:24:24.885Z,15.59
2016-08-01T03:25:24.906Z,15.6
2016-08-01T03:26:24.938Z,15.6
2016-08-01T03:27:24.970Z,15.57
2016-08-01T03:28:24.988Z,15.59
2016-08-01T03:29:25.010Z,15.54
2016-08-01T03:30:39.964Z,15.59
2016-08-01T03:31:25.061Z,15.53
2016-08-01T03:32:25.085Z,15.47
2016-08-01T03:33:25.118Z,15.57
2016-08-01T03:34:25.157Z,15.56
2016-08-01T03:35:25.163Z,15.64
2016-08-01T03:37:40.140Z,15.74
2016-08-01T03:38:25.239Z,15.68
2016-08-01T03:39:25.270Z,15.68
2016-08-01T03:40:25.291Z,15.68
2016-08-01T03:41:25.330Z,15.69
2016-08-01T03:42:25.342Z,15.68
2016-08-01T03:43:25.415Z,15.65
2016-08-01T03:44:25.398Z,15.67
2016-08-01T03:45:25.415Z,15.68
2016-08-01T03:46:25.443Z,15.72
2016-08-01T03:47:25.471Z,15.75
2016-08-01T03:48:25.489Z,15.75
2016-08-01T03:49:25.524Z,15.76
2016-08-01T03:50:25.549Z,15.74
2016-08-01T03:51:25.569Z,15.86
2016-08-01T03:52:40.522Z,15.86
2016-08-01T03:53:40.548Z,15.72
2016-08-01T03:54:25.645Z,15.83
2016-08-01T03:55:25.676Z,15.87
2016-08-01T03:56:25.701Z,15.87
2016-08-01T03:57:25.719Z,15.82
2016-08-01T03:58:25.757Z,15.82
2016-08-01T03:59:25.782Z,15.94
2016-08-01T04:00:25.797Z,16.01
2016-08-01T04:01:25.830Z,15.83
2016-08-01T04:02:25.867Z,15.86
2016-08-01T04:03:25.883Z,15.84
2016-08-01T04:04:27.562Z,15.89
2016-08-01T04:05:25.932Z,15.87
2016-08-01T04:06:25.960Z,15.84
2016-08-01T04:07:25.983Z,15.82
2016-08-01T04:08:26.009Z,15.87
2016-08-01T04:09:40.953Z,15.83
2016-08-01T04:10:26.061Z,15.89
2016-08-01T04:11:26.086Z,15.84
2016-08-01T04:13:26.135Z,15.92
2016-08-01T04:14:26.161Z,15.83
2016-08-01T04:15:26.188Z,15.92
2016-08-01T04:16:26.212Z,16.05
2016-08-01T04:17:26.239Z,16.17
2016-08-01T04:18:26.266Z,16.21
2016-08-01T04:20:26.315Z,16.28
2016-08-01T04:21:41.269Z,16.33
2016-08-01T04:22:26.374Z,16.25
2016-08-01T04:23:26.392Z,16.39
2016-08-01T04:24:41.341Z,16.34
2016-08-01T04:25:26.448Z,16.34
2016-08-01T04:26:26.477Z,16.31
2016-08-01T04:27:26.502Z,16.39
2016-08-01T04:28:26.528Z,16.46
2016-08-01T04:29:26.550Z,16.52
2016-08-01T04:30:26.568Z,16.46
2016-08-01T04:31:26.600Z,16.39
2016-08-01T04:32:26.627Z,16.43
2016-08-01T04:33:26.647Z,16.41
2016-08-01T04:35:26.700Z,16.48
2016-08-01T04:36:41.655Z,16.53
2016-08-01T04:37:41.682Z,16.53
2016-08-01T04:38:26.783Z,16.5
2016-08-01T04:39:26.806Z,16.56
2016-08-01T04:40:26.833Z,16.53
2016-08-01T04:41:26.853Z,16.42
2016-08-01T04:42:26.880Z,16.45
2016-08-01T04:43:26.912Z,16.5
2016-08-01T04:44:26.941Z,16.6
2016-08-01T04:45:26.963Z,16.53
2016-08-01T04:46:26.990Z,16.56
2016-08-01T04:47:27.009Z,16.66
2016-08-01T04:48:27.043Z,16.67
2016-08-01T04:50:27.142Z,16.73
2016-08-01T04:51:27.113Z,16.78
2016-08-01T04:52:42.071Z,16.85
2016-08-01T04:53:42.094Z,16.97
2016-08-01T04:55:27.217Z,17.12
2016-08-01T04:56:42.169Z,17.25
2016-08-01T04:57:27.273Z,17.38
2016-08-01T04:58:27.307Z,17.64
2016-08-01T04:59:27.322Z,17.78
2016-08-01T05:00:27.355Z,17.86
2016-08-01T05:01:27.378Z,17.82
2016-08-01T05:02:27.408Z,18.15
2016-08-01T05:03:27.429Z,18.41
2016-08-01T05:04:42.392Z,19.06
2016-08-01T05:05:27.484Z,19.07
2016-08-01T05:06:27.513Z,19.61
2016-08-01T05:07:27.538Z,20.35
2016-08-01T05:08:27.564Z,20.84
2016-08-01T05:09:42.522Z,20.66
2016-08-01T05:10:27.626Z,20.41
2016-08-01T05:11:27.655Z,20.94
2016-08-01T05:12:42.599Z,20.92
2016-08-01T05:13:42.629Z,20.87
2016-08-01T05:14:42.657Z,21.32
2016-08-01T05:15:27.761Z,21.5
2016-08-01T05:16:27.792Z,22.05
2016-08-01T05:17:27.824Z,22.35
2016-08-01T05:18:27.851Z,22.55
2016-08-01T05:20:27.907Z,23.33
2016-08-01T05:21:27.944Z,23.43
2016-08-01T05:22:27.971Z,22.42
2016-08-01T05:23:27.998Z,22.24
2016-08-01T05:24:42.962Z,21.75
2016-08-01T05:25:28.062Z,21.58
2016-08-01T05:26:28.091Z,21.37
2016-08-01T05:27:43.050Z,21.43
2016-08-01T05:28:43.076Z,21.37
2016-08-01T05:29:28.187Z,21.44
2016-08-01T05:30:28.213Z,21.52
2016-08-01T05:31:28.247Z,22.22
2016-08-01T05:32:28.277Z,22.37
2016-08-01T05:33:28.306Z,22.03
2016-08-01T05:35:28.370Z,22.73
2016-08-01T05:36:28.399Z,23.1
2016-08-01T05:37:28.430Z,23
2016-08-01T05:38:28.473Z,23.35
2016-08-01T05:39:28.485Z,23.97
2016-08-01T05:40:28.523Z,24.69
2016-08-01T05:42:28.590Z,25.5
2016-08-01T05:43:28.614Z,25.32
2016-08-01T05:44:43.577Z,25.72
2016-08-01T05:45:28.682Z,25.65
2016-08-01T05:46:28.718Z,26.2
2016-08-01T05:47:28.749Z,26.6
2016-08-01T05:48:28.786Z,26.7
2016-08-01T05:50:28.854Z,26.81
2016-08-01T05:51:28.888Z,26.67
2016-08-01T05:52:28.921Z,27.22
2016-08-01T05:53:28.967Z,27.07
2016-08-01T05:54:28.983Z,26.07
2016-08-01T05:55:29.024Z,26.06
2016-08-01T05:56:29.054Z,26.54
2016-08-01T05:57:44.014Z,25.43
2016-08-01T05:58:29.122Z,25.82
2016-08-01T05:59:44.081Z,25.18
2016-08-01T06:00:29.194Z,25.5
2016-08-01T06:01:29.239Z,26.1
2016-08-01T06:02:29.259Z,26.58
2016-08-01T06:03:29.297Z,26.12
2016-08-01T06:05:29.358Z,25.65
2016-08-01T06:06:44.325Z,26.47
2016-08-01T06:07:29.443Z,26.3
2016-08-01T06:08:29.456Z,25.94
2016-08-01T06:09:29.499Z,26.62
2016-08-01T06:10:29.533Z,27.41
2016-08-01T06:11:29.567Z,27.66
2016-08-01T06:12:30.295Z,27.43
2016-08-01T06:13:29.629Z,25.92
2016-08-01T06:14:30.366Z,26.06
2016-08-01T06:15:29.718Z,26.15
2016-08-01T06:16:29.744Z,26.37
2016-08-01T06:17:29.769Z,26.3
2016-08-01T06:18:29.812Z,26.3
2016-08-01T06:20:29.876Z,26.77
2016-08-01T06:21:29.910Z,27
2016-08-01T06:22:29.941Z,27.36
2016-08-01T06:23:29.977Z,27.77
2016-08-01T06:24:30.019Z,28.04
2016-08-01T06:25:30.050Z,27.57
2016-08-01T06:26:30.083Z,27.79
2016-08-01T06:27:30.114Z,28.52
2016-08-01T06:28:30.151Z,28.37
2016-08-01T06:29:30.188Z,27.94
2016-08-01T06:30:30.220Z,28.68
2016-08-01T06:31:45.182Z,29.52
2016-08-01T06:32:30.291Z,29.46
2016-08-01T06:33:30.328Z,29.55
2016-08-01T06:35:30.400Z,28.61
2016-08-01T06:36:30.425Z,27.9
2016-08-01T06:37:30.470Z,28.37
2016-08-01T06:38:30.495Z,29
2016-08-01T06:39:30.536Z,29.63
2016-08-01T06:41:30.601Z,28.76
2016-08-01T06:43:30.677Z,28.44
2016-08-01T06:44:30.716Z,28.78
2016-08-01T06:45:30.743Z,29.09
2016-08-01T06:46:30.831Z,28.39
2016-08-01T06:47:45.743Z,27.62
2016-08-01T06:48:30.854Z,27.77
2016-08-01T06:49:30.899Z,26.95
2016-08-01T06:50:30.917Z,26.88
2016-08-01T06:51:30.963Z,26.45
2016-08-01T06:52:30.990Z,25.83
2016-08-01T06:53:31.021Z,25.98
2016-08-01T06:54:31.062Z,26.18
2016-08-01T06:55:31.093Z,25.57
2016-08-01T06:56:31.124Z,26.01
2016-08-01T06:57:31.163Z,25.94
2016-08-01T06:58:31.199Z,26.09
2016-08-01T06:59:31.229Z,26.29
2016-08-01T07:01:31.298Z,25.32
2016-08-01T07:02:31.334Z,24.84
2016-08-01T07:03:46.291Z,24.43
2016-08-01T07:04:31.403Z,24.58
2016-08-01T07:05:31.433Z,24.61
2016-08-01T07:06:31.472Z,25.2
2016-08-01T07:07:31.502Z,25.28
2016-08-01T07:08:31.535Z,25.2
2016-08-01T07:09:31.570Z,24.91
2016-08-01T07:10:31.612Z,24.99
2016-08-01T07:11:31.634Z,24.99
2016-08-01T07:12:31.671Z,24.88
2016-08-01T07:13:31.706Z,25.21
2016-08-01T07:14:31.735Z,25.2
2016-08-01T07:15:31.767Z,25.73
2016-08-01T07:17:31.835Z,25.82
2016-08-01T07:18:31.872Z,25.46
2016-08-01T07:19:46.829Z,25.54
2016-08-01T07:20:31.935Z,25.05
2016-08-01T07:21:31.970Z,25.02
2016-08-01T07:22:32.001Z,25.03
2016-08-01T07:23:32.035Z,25.42
2016-08-01T07:24:32.073Z,25.46
2016-08-01T07:25:32.108Z,25.35
2016-08-01T07:26:32.136Z,25.69
2016-08-01T07:27:32.169Z,26.02
2016-08-01T07:28:32.206Z,25.94
2016-08-01T07:29:32.229Z,26.51
2016-08-01T07:30:32.265Z,26.97
2016-08-01T07:31:32.298Z,27.21
2016-08-01T07:32:32.333Z,27.13
2016-08-01T07:33:47.295Z,26.99
2016-08-01T07:34:47.330Z,27.47
2016-08-01T07:35:47.357Z,27
2016-08-01T07:36:32.465Z,26.77
2016-08-01T07:37:32.502Z,26.88
2016-08-01T07:38:32.534Z,26.7
2016-08-01T07:39:32.568Z,26.21
2016-08-01T07:40:32.601Z,26.73
2016-08-01T07:41:32.638Z,27.06
2016-08-01T07:42:32.670Z,27.51
2016-08-01T07:43:32.749Z,27.57
2016-08-01T07:44:32.739Z,28.36
2016-08-01T07:45:32.775Z,28.76
2016-08-01T07:46:32.868Z,28.64
2016-08-01T07:47:32.837Z,28.67
2016-08-01T07:48:32.873Z,28.41
2016-08-01T07:49:32.911Z,28.46
2016-08-01T07:50:32.945Z,28.03
2016-08-01T07:51:32.978Z,27.65
2016-08-01T07:52:33.014Z,27.94
2016-08-01T07:53:33.047Z,28.62
2016-08-01T07:54:33.077Z,28.61
2016-08-01T07:55:33.120Z,28.93
2016-08-01T07:56:33.148Z,29
2016-08-01T07:57:33.185Z,28.93
2016-08-01T07:58:33.217Z,29.41
2016-08-01T07:59:33.247Z,29.34
2016-08-01T08:00:33.296Z,29.57
2016-08-01T08:01:33.318Z,28.86
2016-08-01T08:02:33.371Z,28.56
2016-08-01T08:03:48.318Z,28.3
2016-08-01T08:04:33.429Z,28.03
2016-08-01T08:05:33.460Z,28
2016-08-01T08:06:48.424Z,27.27
2016-08-01T08:07:33.532Z,26.97
2016-08-01T08:08:34.254Z,27.7
2016-08-01T08:09:33.597Z,28.33
2016-08-01T08:10:33.631Z,28.64
2016-08-01T08:11:33.678Z,28.09
2016-08-01T08:12:33.698Z,28.14
2016-08-01T08:13:33.734Z,28.12
2016-08-01T08:14:33.766Z,27.96
2016-08-01T08:15:33.803Z,28.46
2016-08-01T08:16:33.838Z,28.85
2016-08-01T08:17:33.869Z,29.48
2016-08-01T08:18:33.908Z,29.68
2016-08-01T08:19:48.867Z,29.97
2016-08-01T08:20:33.972Z,29.61
2016-08-01T08:21:34.014Z,28.92
2016-08-01T08:22:48.968Z,28.74
2016-08-01T08:23:34.083Z,28.88
2016-08-01T08:24:34.119Z,28.61
2016-08-01T08:25:34.200Z,28.62
2016-08-01T08:26:34.186Z,28.85
2016-08-01T08:27:34.222Z,28.86
2016-08-01T08:28:34.256Z,29.26
2016-08-01T08:29:34.284Z,29.63
2016-08-01T08:30:34.331Z,30.08
2016-08-01T08:31:34.355Z,30.13
2016-08-01T08:32:34.394Z,29.7
2016-08-01T08:33:34.426Z,28.54
2016-08-01T08:34:34.464Z,27.51
2016-08-01T08:35:34.498Z,26.65
2016-08-01T08:36:49.456Z,25.92
2016-08-01T08:37:34.564Z,25.7
2016-08-01T08:38:49.519Z,25.36
2016-08-01T08:39:49.553Z,25
2016-08-01T08:40:34.663Z,24.81
2016-08-01T08:41:34.705Z,24.18
2016-08-01T08:42:34.747Z,24.02
2016-08-01T08:43:34.768Z,24
2016-08-01T08:44:34.800Z,24
2016-08-01T08:45:34.843Z,24.2
2016-08-01T08:46:34.869Z,23.58
2016-08-01T08:47:34.896Z,23.63
2016-08-01T08:48:34.930Z,24.16
2016-08-01T08:49:34.963Z,25.06
2016-08-01T08:50:49.972Z,25.51
2016-08-01T08:52:35.064Z,26.3
2016-08-01T08:53:35.096Z,26.69
2016-08-01T08:54:50.054Z,27.47
2016-08-01T08:55:35.158Z,27.34
2016-08-01T08:56:35.194Z,27.03
2016-08-01T08:57:35.227Z,26.48
2016-08-01T08:58:35.262Z,26.6
2016-08-01T08:59:35.348Z,26.47
2016-08-01T09:00:35.323Z,26.18
2016-08-01T09:01:35.357Z,26.4
2016-08-01T09:03:35.427Z,27.4
2016-08-01T09:04:35.465Z,27.93
2016-08-01T09:05:35.495Z,28.14
2016-08-01T09:06:35.526Z,28.3
2016-08-01T09:07:50.484Z,28.78
2016-08-01T09:08:35.596Z,27.88
2016-08-01T09:09:50.552Z,27.17
2016-08-01T09:10:35.658Z,26.54
2016-08-01T09:11:35.689Z,26.32
2016-08-01T09:12:35.720Z,26.02
2016-08-01T09:13:35.756Z,26.17
2016-08-01T09:14:35.794Z,26.17
2016-08-01T09:15:35.826Z,26.4
2016-08-01T09:16:35.856Z,27.12
2016-08-01T09:17:35.889Z,27.92
2016-08-01T09:18:35.916Z,28.36
2016-08-01T09:19:35.955Z,28.55
2016-08-01T09:20:35.988Z,28.41
2016-08-01T09:21:36.022Z,28.21
2016-08-01T09:22:36.058Z,27.78
2016-08-01T09:23:36.093Z,27.78
2016-08-01T09:24:51.043Z,28.41
2016-08-01T09:25:51.080Z,28.7
2016-08-01T09:26:36.232Z,28.55
2016-08-01T09:27:36.220Z,27.87
2016-08-01T09:28:36.251Z,28.21
2016-08-01T09:29:36.290Z,28.29
2016-08-01T09:30:36.320Z,28.61
2016-08-01T09:31:36.350Z,29.16
2016-08-01T09:32:36.387Z,29.21
2016-08-01T09:33:36.511Z,29.15
2016-08-01T09:34:36.447Z,28.25
2016-08-01T09:35:36.493Z,27.87
2016-08-01T09:36:36.514Z,27.41
2016-08-01T09:37:36.552Z,27.59
2016-08-01T09:38:36.589Z,27.66
2016-08-01T09:39:36.619Z,27.96
2016-08-01T09:40:36.650Z,28.15
2016-08-01T09:41:51.606Z,27.96
2016-08-01T09:42:36.718Z,28.31
2016-08-01T09:43:36.755Z,28.64
2016-08-01T09:44:36.782Z,29.09
2016-08-01T09:45:36.813Z,29.24
2016-08-01T09:46:36.851Z,28.83
2016-08-01T09:47:36.880Z,28.76
2016-08-01T09:48:37.617Z,29.05
2016-08-01T09:49:36.942Z,28.56
2016-08-01T09:50:36.981Z,28.4
2016-08-01T09:51:37.018Z,28.3
2016-08-01T09:52:37.048Z,28.36
2016-08-01T09:53:37.077Z,28.39
2016-08-01T09:54:37.117Z,28.07
2016-08-01T09:55:52.072Z,27.96
2016-08-01T09:56:52.101Z,28.59
2016-08-01T09:57:52.136Z,28.52
2016-08-01T09:58:37.249Z,28.7
2016-08-01T09:59:37.326Z,28.21
2016-08-01T10:00:37.313Z,27.65
2016-08-01T10:01:52.278Z,27.66
2016-08-01T10:02:37.378Z,27.97
2016-08-01T10:03:37.412Z,27.85
2016-08-01T10:04:37.440Z,27.36
2016-08-01T10:05:37.477Z,26.94
2016-08-01T10:06:37.515Z,26.84
2016-08-01T10:07:37.536Z,27.41
2016-08-01T10:08:37.571Z,27.69
2016-08-01T10:09:37.603Z,27.97
2016-08-01T10:10:37.641Z,28.33
2016-08-01T10:11:37.677Z,28.88
2016-08-01T10:13:52.659Z,29.41
2016-08-01T10:14:37.774Z,29.43
2016-08-01T10:15:37.803Z,29.09
2016-08-01T10:16:37.837Z,28.44
2016-08-01T10:17:37.864Z,27.29
2016-08-01T10:18:38.591Z,26.69
2016-08-01T10:19:37.933Z,26.12
2016-08-01T10:20:37.962Z,26.18
2016-08-01T10:21:37.995Z,26.84
2016-08-01T10:22:38.032Z,27.84
2016-08-01T10:23:38.060Z,28.3
2016-08-01T10:24:38.091Z,28.68
2016-08-01T10:25:38.124Z,28.81
2016-08-01T10:26:38.157Z,29.02
2016-08-01T10:27:38.194Z,28.67
2016-08-01T10:28:38.224Z,27.88
2016-08-01T10:29:53.184Z,27.21
2016-08-01T10:30:38.287Z,27.06
2016-08-01T10:31:38.323Z,26.72
2016-08-01T10:32:38.395Z,26.69
2016-08-01T10:33:38.386Z,27.14
2016-08-01T10:34:38.421Z,27.44
2016-08-01T10:35:38.453Z,27.32
2016-08-01T10:36:38.489Z,27.27
2016-08-01T10:37:38.516Z,27.02
2016-08-01T10:39:38.578Z,26.18
2016-08-01T10:40:38.613Z,25.82
2016-08-01T10:41:38.650Z,25.79
2016-08-01T10:42:38.672Z,26.06
2016-08-01T10:43:38.707Z,26.02
2016-08-01T10:44:53.669Z,25.91
2016-08-01T10:45:38.777Z,25.94
2016-08-01T10:46:38.810Z,25.75
2016-08-01T10:47:38.836Z,25.92
2016-08-01T10:49:38.907Z,26.21
2016-08-01T10:51:38.969Z,26.17
2016-08-01T10:52:38.999Z,25.83
2016-08-01T10:53:39.032Z,25.46
2016-08-01T10:54:39.061Z,25.46
2016-08-01T10:55:39.101Z,25.05
2016-08-01T10:56:54.051Z,25.28
2016-08-01T10:57:54.083Z,25.42
2016-08-01T10:58:39.190Z,25.2
2016-08-01T10:59:54.145Z,25.39
2016-08-01T11:00:39.297Z,25.47
2016-08-01T11:01:39.281Z,25.23
2016-08-01T11:02:39.312Z,25.18
2016-08-01T11:03:39.350Z,25
2016-08-01T11:04:39.369Z,24.71
2016-08-01T11:05:40.228Z,24.76
2016-08-01T11:06:39.438Z,24.52
2016-08-01T11:07:39.470Z,24.68
2016-08-01T11:08:39.501Z,24.58
2016-08-01T11:09:39.530Z,24.52
2016-08-01T11:10:39.560Z,24.77
2016-08-01T11:11:39.591Z,24.95
2016-08-01T11:13:40.365Z,25.35
2016-08-01T11:14:40.399Z,25.51
2016-08-01T11:15:39.723Z,25.61
2016-08-01T11:16:54.682Z,25.64
2016-08-01T11:18:39.816Z,25.25
2016-08-01T11:19:39.843Z,25.21
2016-08-01T11:21:39.908Z,24.24
2016-08-01T11:22:40.635Z,24.21
2016-08-01T11:23:39.963Z,24.32
2016-08-01T11:24:40.000Z,24.46
2016-08-01T11:26:40.057Z,24.16
2016-08-01T11:27:40.090Z,24.28
2016-08-01T11:28:40.123Z,23.97
2016-08-01T11:29:40.145Z,23.94
2016-08-01T11:30:40.189Z,24.15
2016-08-01T11:31:55.139Z,24.13
2016-08-01T11:32:55.172Z,24.18
2016-08-01T11:33:40.285Z,24.42
2016-08-01T11:34:40.315Z,24.55
2016-08-01T11:37:40.403Z,24.85
2016-08-01T11:38:40.433Z,24.95
2016-08-01T11:39:40.561Z,24.99
2016-08-01T11:41:55.450Z,24.64
2016-08-01T11:42:40.549Z,24.34
2016-08-01T11:43:40.579Z,24.46
2016-08-01T11:44:55.537Z,24.58
2016-08-01T11:45:40.641Z,24.58
2016-08-01T11:46:40.677Z,24.43
2016-08-01T11:47:55.625Z,24.47
2016-08-01T11:48:55.656Z,24.43
2016-08-01T11:49:41.458Z,24.34
2016-08-01T11:50:40.795Z,24.39
2016-08-01T11:51:40.828Z,24.22
2016-08-01T11:52:40.853Z,24.24
2016-08-01T11:53:40.878Z,23.95
2016-08-01T11:54:40.917Z,23.75
2016-08-01T11:55:40.946Z,23.76
2016-08-01T11:56:40.970Z,23.46
2016-08-01T11:57:41.014Z,23.22
2016-08-01T11:59:41.066Z,23.16
2016-08-01T12:00:41.160Z,23
2016-08-01T12:01:41.130Z,22.65
2016-08-01T12:02:41.160Z,22.57
2016-08-01T12:03:41.191Z,22.7
2016-08-01T12:04:56.196Z,22.73
2016-08-01T12:05:41.245Z,22.72
2016-08-01T12:06:41.284Z,22.7
2016-08-01T12:07:41.308Z,22.64
2016-08-01T12:08:41.344Z,22.72
2016-08-01T12:09:41.367Z,22.79
2016-08-01T12:10:41.392Z,22.73
2016-08-01T12:11:42.127Z,22.42
2016-08-01T12:12:41.463Z,22.42
2016-08-01T12:13:41.487Z,22.1
2016-08-01T12:14:41.517Z,22.06
2016-08-01T12:15:41.552Z,22.28
2016-08-01T12:16:41.574Z,22.24
2016-08-01T12:17:41.607Z,22.25
2016-08-01T12:18:41.639Z,22.47
2016-08-01T12:19:56.592Z,22.43
2016-08-01T12:20:41.690Z,22.52
2016-08-01T12:21:41.722Z,22.6
2016-08-01T12:22:41.750Z,22.58
2016-08-01T12:23:41.777Z,22.65
2016-08-01T12:25:41.836Z,22.94
2016-08-01T12:26:41.862Z,23.12
2016-08-01T12:27:41.900Z,23.38
2016-08-01T12:28:41.928Z,23.57
2016-08-01T12:29:41.955Z,23.75
2016-08-01T12:30:41.996Z,23.97
2016-08-01T12:31:56.943Z,24.31
2016-08-01T12:32:56.971Z,24.42
2016-08-01T12:33:42.091Z,24.43
2016-08-01T12:34:42.804Z,24.64
2016-08-01T12:35:42.138Z,24.67
2016-08-01T12:37:42.194Z,24.61
2016-08-01T12:38:42.223Z,24.45
2016-08-01T12:39:42.267Z,24.46
2016-08-01T12:40:42.282Z,24.4
2016-08-01T12:41:42.311Z,24.55
2016-08-01T12:42:42.345Z,24.43
2016-08-01T12:43:42.376Z,24.45
2016-08-01T12:44:42.399Z,24.18
2016-08-01T12:45:42.435Z,23.95
2016-08-01T12:46:57.388Z,23.42
2016-08-01T12:47:42.493Z,23.32
2016-08-01T12:48:42.571Z,23.32
2016-08-01T12:49:42.558Z,23.25
2016-08-01T12:50:42.584Z,23.16
2016-08-01T12:51:57.538Z,23.28
2016-08-01T12:52:42.640Z,23.57
2016-08-01T12:53:42.668Z,23.73
2016-08-01T12:54:42.698Z,23.93
2016-08-01T12:55:42.733Z,24.16
2016-08-01T12:56:42.752Z,24.03
2016-08-01T12:57:42.786Z,24.06
2016-08-01T12:58:42.816Z,23.98
2016-08-01T12:59:42.846Z,23.94
2016-08-01T13:00:42.877Z,24.12
2016-08-01T13:02:42.941Z,24.28
2016-08-01T13:03:57.894Z,24.53
2016-08-01T13:04:42.993Z,24.55
2016-08-01T13:05:43.028Z,24.57
2016-08-01T13:06:43.057Z,24.52
2016-08-01T13:07:58.060Z,24.4
2016-08-01T13:08:43.810Z,24.42
2016-08-01T13:09:43.147Z,24.39
2016-08-01T13:10:43.170Z,24.34
2016-08-01T13:11:43.209Z,24.46
2016-08-01T13:12:43.237Z,24.46
2016-08-01T13:13:43.273Z,24.34
2016-08-01T13:14:43.293Z,24.53
2016-08-01T13:15:44.021Z,24.53
2016-08-01T13:16:43.348Z,24.65
2016-08-01T13:17:43.383Z,24.43
2016-08-01T13:18:43.410Z,24.42
2016-08-01T13:19:43.460Z,24.25
2016-08-01T13:20:43.472Z,24.47
2016-08-01T13:21:58.429Z,24.47
2016-08-01T13:22:43.526Z,24.69
2016-08-01T13:23:58.488Z,24.57
2016-08-01T13:24:43.587Z,24.45
2016-08-01T13:25:43.622Z,24.4
2016-08-01T13:26:43.650Z,24.42
2016-08-01T13:27:43.681Z,24.61
2016-08-01T13:28:43.706Z,24.6
2016-08-01T13:29:43.742Z,24.55
2016-08-01T13:30:43.768Z,24.45
2016-08-01T13:31:43.845Z,24.46
2016-08-01T13:32:44.530Z,24.62
2016-08-01T13:33:43.863Z,24.73
2016-08-01T13:34:43.890Z,24.71
2016-08-01T13:36:43.946Z,24.37
2016-08-01T13:37:43.980Z,24.43
2016-08-01T13:38:44.014Z,24.45